Time;durP1;ratioP1;P1;durP2;ratioP2;P2;SDS_P1;SDS_P2;PMS_P1;PMS_P2;Temp;Humidity;BMP_temperature;BMP_pressure;BME280_temperature;BME280_humidity;BME280_pressure;Samples;Min_cycle;Max_cycle;Signal;HPM_P1;HPM_P2
2022/08/14 00:02:03;;;;;;;9.52;8.63;;;19.00;99.90;;;;;;5055283;28;20240;-71
2022/08/14 00:04:30;;;;;;;10.55;9.50;;;18.90;99.90;;;;;;5055363;28;20178;-71
2022/08/14 00:06:56;;;;;;;10.13;9.32;;;18.90;99.90;;;;;;5054015;28;20644;-71
2022/08/14 00:09:22;;;;;;;9.60;8.80;;;18.80;99.90;;;;;;5055439;28;20182;-71
2022/08/14 00:11:47;;;;;;;9.88;9.07;;;18.80;99.90;;;;;;5055184;28;20198;-71
2022/08/14 00:14:13;;;;;;;10.73;9.70;;;18.80;99.90;;;;;;5053856;28;20178;-71
2022/08/14 00:16:39;;;;;;;10.23;9.43;;;18.70;99.90;;;;;;5053889;28;20235;-71
2022/08/14 00:22:26;;;;;;;10.73;9.82;;;18.60;99.90;;;;;;5055126;28;20766;-71
2022/08/14 00:24:51;;;;;;;10.57;9.48;;;18.60;99.90;;;;;;5054249;28;20217;-71
2022/08/14 00:27:17;;;;;;;9.93;9.05;;;18.50;99.90;;;;;;5053993;28;20177;-71
2022/08/14 00:29:42;;;;;;;10.82;9.93;;;18.50;99.90;;;;;;5055005;28;20179;-71
2022/08/14 00:32:08;;;;;;;10.77;9.73;;;18.40;99.90;;;;;;5054963;28;20194;-71
2022/08/14 00:34:34;;;;;;;12.02;10.07;;;18.40;99.90;;;;;;5053533;28;20585;-71
2022/08/14 00:36:59;;;;;;;10.75;9.77;;;18.30;99.90;;;;;;5053405;28;20185;-71
2022/08/14 00:39:25;;;;;;;11.45;10.25;;;18.30;99.90;;;;;;5053847;28;20186;-71
2022/08/14 00:41:51;;;;;;;10.68;9.88;;;18.30;99.90;;;;;;5054412;28;20680;-71
2022/08/14 00:44:16;;;;;;;11.63;9.70;;;18.20;99.90;;;;;;5054117;28;20578;-71
2022/08/14 00:46:43;;;;;;;11.18;10.02;;;18.20;99.90;;;;;;5053457;28;20265;-71
2022/08/14 00:49:10;;;;;;;10.55;9.65;;;18.10;99.90;;;;;;5053323;28;20296;-71
2022/08/14 00:51:37;;;;;;;12.02;10.68;;;18.00;99.90;;;;;;5052170;28;20591;-71
2022/08/14 00:54:03;;;;;;;11.05;10.05;;;18.00;99.90;;;;;;5054283;28;20198;-71
2022/08/14 00:56:29;;;;;;;11.50;10.32;;;18.00;99.90;;;;;;5054011;28;20229;-71
2022/08/14 00:58:55;;;;;;;11.38;10.38;;;17.90;99.90;;;;;;5053064;28;20178;-71
2022/08/14 01:01:21;;;;;;;11.05;10.15;;;17.90;99.90;;;;;;5052749;28;20297;-71
2022/08/14 01:03:47;;;;;;;11.43;9.50;;;18.00;99.90;;;;;;5054118;28;20249;-71
2022/08/14 01:06:16;;;;;;;11.18;9.30;;;18.00;99.90;;;;;;5054017;28;20182;-71
2022/08/14 01:08:43;;;;;;;10.75;9.93;;;18.10;99.90;;;;;;5052851;28;20181;-71
2022/08/14 01:11:14;;;;;;;10.73;9.82;;;18.10;99.90;;;;;;5053377;28;20227;-71
2022/08/14 01:13:42;;;;;;;10.80;9.80;;;18.10;99.90;;;;;;5052828;28;20177;-71
2022/08/14 01:16:13;;;;;;;10.43;9.52;;;18.10;99.90;;;;;;5052857;28;20182;-71
2022/08/14 01:21:32;;;;;;;11.20;10.30;;;17.90;99.90;;;;;;5053703;28;20223;-71
2022/08/14 01:23:59;;;;;;;11.75;10.52;;;17.90;99.90;;;;;;5053479;28;20162;-71
2022/08/14 01:26:27;;;;;;;11.30;10.38;;;17.80;99.90;;;;;;5052496;28;20181;-71
2022/08/14 01:28:56;;;;;;;11.75;10.55;;;17.80;99.90;;;;;;5053436;28;20212;-71
2022/08/14 01:31:24;;;;;;;11.32;10.32;;;17.70;99.90;;;;;;5053874;28;20209;-71
2022/08/14 01:33:52;;;;;;;11.57;10.57;;;17.70;99.90;;;;;;5052293;28;20182;-71
2022/08/14 01:36:19;;;;;;;12.05;10.90;;;17.70;99.90;;;;;;5052319;28;20178;-71
2022/08/14 01:38:47;;;;;;;10.98;10.13;;;17.50;99.90;;;;;;5052699;28;20186;-71
2022/08/14 01:41:16;;;;;;;11.70;10.55;;;17.50;99.90;;;;;;5052914;28;20205;-71
2022/08/14 01:43:47;;;;;;;12.00;10.77;;;17.50;99.90;;;;;;5052539;28;20174;-71
2022/08/14 01:46:15;;;;;;;12.25;10.95;;;17.50;99.90;;;;;;5052249;28;20171;-71
2022/08/14 01:48:43;;;;;;;12.23;11.23;;;17.50;99.90;;;;;;5052965;28;20174;-71
2022/08/14 01:51:11;;;;;;;12.95;11.75;;;17.60;99.90;;;;;;5053931;28;20193;-71
2022/08/14 01:53:40;;;;;;;13.93;11.30;;;17.60;99.90;;;;;;5052969;28;20202;-71
2022/08/14 01:56:06;;;;;;;12.85;11.75;;;17.50;99.90;;;;;;5052085;28;20174;-71
2022/08/14 01:58:31;;;;;;;11.80;10.90;;;17.40;99.90;;;;;;5052103;28;20210;-71
2022/08/14 02:00:57;;;;;;;12.25;11.07;;;17.30;99.90;;;;;;5051769;28;20244;-71
2022/08/14 02:03:27;;;;;;;11.90;10.85;;;17.30;99.90;;;;;;5051999;28;20197;-71
2022/08/14 02:05:57;;;;;;;11.77;10.77;;;17.30;99.90;;;;;;5052358;28;20269;-71
2022/08/14 02:08:28;;;;;;;11.85;10.65;;;17.30;99.90;;;;;;5053103;28;20269;-71
2022/08/14 02:11:15;;;;;;;11.75;10.77;;;17.30;99.90;;;;;;5053283;28;20158;-71
2022/08/14 02:13:42;;;;;;;12.15;11.18;;;17.20;99.90;;;;;;5053294;28;20276;-71
2022/08/14 02:16:15;;;;;;;11.18;10.30;;;17.30;99.90;;;;;;5051969;28;20186;-71
2022/08/14 02:18:41;;;;;;;11.50;10.60;;;17.30;99.90;;;;;;5053507;28;20248;-71
2022/08/14 02:21:07;;;;;;;11.75;10.60;;;17.30;99.90;;;;;;5051787;28;20210;-71
2022/08/14 02:23:33;;;;;;;13.23;10.90;;;17.30;99.90;;;;;;5053107;28;20692;-71
2022/08/14 02:26:03;;;;;;;12.63;11.55;;;17.10;99.90;;;;;;5051793;28;20178;-71
2022/08/14 02:28:30;;;;;;;14.07;12.02;;;17.10;99.90;;;;;;5052994;28;20498;-71
2022/08/14 02:30:59;;;;;;;13.02;12.02;;;16.90;99.90;;;;;;5052120;28;20186;-71
2022/08/14 02:33:26;;;;;;;12.98;11.88;;;16.80;99.90;;;;;;5053128;28;20194;-71
2022/08/14 02:35:52;;;;;;;13.38;12.27;;;16.80;99.90;;;;;;5052593;28;20292;-71
2022/08/14 02:38:18;;;;;;;12.98;11.85;;;16.90;99.90;;;;;;5051657;28;20193;-71
2022/08/14 02:40:44;;;;;;;12.43;11.20;;;16.90;99.90;;;;;;5051945;28;20202;-71
2022/08/14 02:43:10;;;;;;;12.15;11.13;;;17.00;99.90;;;;;;5051901;28;20263;-71
2022/08/14 02:45:35;;;;;;;14.52;11.07;;;17.00;99.90;;;;;;5051664;28;20209;-71
2022/08/14 02:48:06;;;;;;;11.48;10.52;;;17.00;99.90;;;;;;5053068;28;20171;-71
2022/08/14 02:50:36;;;;;;;13.25;12.05;;;17.10;99.90;;;;;;5052052;28;20222;-71
2022/08/14 02:53:01;;;;;;;13.43;12.13;;;17.00;99.90;;;;;;5051532;28;20252;-71
2022/08/14 02:55:29;;;;;;;13.38;12.18;;;16.90;99.90;;;;;;5051940;28;20182;-71
2022/08/14 02:57:56;;;;;;;13.85;12.50;;;17.00;99.90;;;;;;5051597;28;20182;-71
2022/08/14 03:00:22;;;;;;;13.05;11.95;;;16.90;99.90;;;;;;5051505;28;20704;-71
2022/08/14 03:02:49;;;;;;;13.38;12.27;;;16.70;99.90;;;;;;5052650;28;20187;-71
2022/08/14 03:05:16;;;;;;;13.18;12.05;;;16.70;99.90;;;;;;5053030;28;20171;-71
2022/08/14 03:07:42;;;;;;;14.80;13.60;;;16.70;99.90;;;;;;5053431;28;20263;-71
2022/08/14 03:10:09;;;;;;;13.57;12.25;;;16.70;99.90;;;;;;5051811;28;20182;-71
2022/08/14 03:12:35;;;;;;;12.77;11.77;;;16.70;99.90;;;;;;5053207;28;20198;-71
2022/08/14 03:15:05;;;;;;;13.02;12.02;;;16.70;99.90;;;;;;5054797;28;20178;-71
2022/08/14 03:17:30;;;;;;;14.07;12.85;;;16.60;99.90;;;;;;5056487;28;20166;-71
2022/08/14 03:19:56;;;;;;;13.57;12.38;;;16.70;99.90;;;;;;5056359;28;20217;-71
2022/08/14 03:22:22;;;;;;;13.23;12.00;;;16.70;99.90;;;;;;5055940;28;20243;-71
2022/08/14 03:24:47;;;;;;;13.85;12.65;;;16.60;99.90;;;;;;5054785;28;20171;-71
2022/08/14 03:27:14;;;;;;;13.80;12.65;;;16.60;99.90;;;;;;5055156;28;20175;-71
2022/08/14 03:29:40;;;;;;;14.23;13.02;;;16.70;99.90;;;;;;5054706;28;20600;-71
2022/08/14 03:32:05;;;;;;;14.60;13.23;;;16.60;99.90;;;;;;5054883;28;20201;-71
2022/08/14 03:34:31;;;;;;;14.13;12.82;;;16.60;99.90;;;;;;5055698;28;20182;-71
2022/08/14 03:40:21;;;;;;;14.13;12.80;;;16.50;99.90;;;;;;5056278;28;20198;-71
2022/08/14 03:42:50;;;;;;;14.18;12.77;;;16.50;99.90;;;;;;5055250;28;20194;-71
2022/08/14 03:45:17;;;;;;;13.27;12.18;;;16.50;99.90;;;;;;5054694;28;20212;-71
2022/08/14 03:47:43;;;;;;;13.27;12.18;;;16.50;99.90;;;;;;5054443;28;20178;-71
2022/08/14 03:50:10;;;;;;;13.90;12.70;;;16.40;99.90;;;;;;5054326;28;20198;-71
2022/08/14 03:52:42;;;;;;;13.73;12.45;;;16.40;99.90;;;;;;5055723;28;20564;-71
2022/08/14 03:55:11;;;;;;;14.27;13.18;;;16.40;99.90;;;;;;5054210;28;20182;-71
2022/08/14 03:57:37;;;;;;;15.18;13.43;;;16.30;99.90;;;;;;5054430;28;20185;-71
2022/08/14 04:00:07;;;;;;;13.32;12.27;;;16.20;99.90;;;;;;5054482;28;20204;-71
2022/08/14 04:02:33;;;;;;;14.20;13.10;;;16.30;99.90;;;;;;5054954;28;20194;-71
2022/08/14 04:05:00;;;;;;;13.68;12.50;;;16.20;99.90;;;;;;5054079;28;20242;-71
2022/08/14 04:07:26;;;;;;;13.68;12.48;;;16.20;99.90;;;;;;5055241;28;20174;-71
2022/08/14 04:09:52;;;;;;;13.65;12.50;;;16.30;99.90;;;;;;5055506;28;20173;-71
2022/08/14 04:12:18;;;;;;;14.75;13.65;;;16.30;99.90;;;;;;5053815;28;20230;-71
2022/08/14 04:14:44;;;;;;;14.90;13.40;;;16.20;99.90;;;;;;5055045;28;20204;-71
2022/08/14 04:17:11;;;;;;;14.38;13.23;;;16.20;99.90;;;;;;5055048;28;20553;-71
2022/08/14 04:19:38;;;;;;;14.27;13.13;;;16.20;99.90;;;;;;5054896;28;20206;-71
2022/08/14 04:22:05;;;;;;;15.77;14.13;;;16.20;99.90;;;;;;5054523;28;20198;-71
2022/08/14 04:24:31;;;;;;;16.13;13.98;;;16.20;99.90;;;;;;5055326;28;20535;-71
2022/08/14 04:26:57;;;;;;;14.93;13.73;;;16.10;99.90;;;;;;5053949;28;20247;-71
2022/08/14 04:29:23;;;;;;;14.70;13.50;;;16.20;99.90;;;;;;5053534;28;20641;-71
2022/08/14 04:31:49;;;;;;;14.88;13.48;;;16.20;99.90;;;;;;5053476;28;20190;-71
2022/08/14 04:34:16;;;;;;;15.25;13.85;;;16.20;99.90;;;;;;5054390;28;20276;-71
2022/08/14 04:44:53;;;;;;;14.63;13.40;;;16.20;99.90;;;;;;5054814;28;20165;-71
2022/08/14 04:50:04;;;;;;;14.30;13.02;;;16.40;99.90;;;;;;5054271;28;20336;-71
2022/08/14 04:52:29;;;;;;;15.07;13.77;;;16.40;99.90;;;;;;5054615;28;20236;-71
2022/08/14 04:54:56;;;;;;;14.85;13.57;;;16.40;99.90;;;;;;5053986;28;20259;-71
2022/08/14 04:57:22;;;;;;;14.45;13.10;;;16.50;99.90;;;;;;5053350;28;20174;-71
2022/08/14 04:59:47;;;;;;;15.32;13.77;;;16.50;99.90;;;;;;5052929;28;20660;-71
2022/08/14 05:02:15;;;;;;;15.55;14.05;;;16.60;99.90;;;;;;5053216;28;20201;-71
2022/08/14 05:04:40;;;;;;;15.15;13.75;;;16.70;99.90;;;;;;5053258;28;20213;-71
2022/08/14 05:07:06;;;;;;;14.90;13.68;;;16.80;99.90;;;;;;5052857;28;20209;-71
2022/08/14 05:09:32;;;;;;;15.68;14.38;;;16.80;99.90;;;;;;5052816;28;20220;-71
2022/08/14 05:11:57;;;;;;;14.95;13.68;;;16.90;99.90;;;;;;5053018;28;20311;-71
2022/08/14 05:14:24;;;;;;;15.07;13.65;;;16.90;99.90;;;;;;5054307;28;20217;-71
2022/08/14 05:16:49;;;;;;;14.80;13.48;;;16.90;99.90;;;;;;5052630;28;20189;-71
2022/08/14 05:19:15;;;;;;;16.08;14.50;;;17.10;99.90;;;;;;5053766;28;20214;-71
2022/08/14 05:21:41;;;;;;;16.67;13.57;;;17.10;99.90;;;;;;5053895;28;20213;-71
2022/08/14 05:24:07;;;;;;;15.13;13.48;;;17.30;99.90;;;;;;5054320;28;20177;-71
2022/08/14 05:26:32;;;;;;;14.98;13.40;;;17.30;99.90;;;;;;5052564;28;20261;-71
2022/08/14 05:28:58;;;;;;;15.57;14.18;;;17.40;99.90;;;;;;5052738;28;20612;-71
2022/08/14 05:31:24;;;;;;;15.48;14.27;;;17.40;99.90;;;;;;5052342;28;20186;-71
2022/08/14 05:33:49;;;;;;;14.50;13.18;;;17.40;99.90;;;;;;5052815;28;20210;-71
2022/08/14 05:36:15;;;;;;;14.93;13.57;;;17.60;99.90;;;;;;5053038;28;20668;-71
2022/08/14 05:38:43;;;;;;;15.60;14.20;;;17.80;99.90;;;;;;5053768;28;20190;-71
2022/08/14 05:41:11;;;;;;;15.95;14.65;;;18.00;99.90;;;;;;5052529;28;20547;-71
2022/08/14 05:43:39;;;;;;;18.98;15.07;;;18.00;99.90;;;;;;5052545;28;20807;-71
2022/08/14 05:46:06;;;;;;;14.57;13.13;;;18.10;99.90;;;;;;5052264;28;20548;-71
2022/08/14 05:48:33;;;;;;;15.80;13.23;;;18.20;99.90;;;;;;5052264;28;20276;-71
2022/08/14 05:50:58;;;;;;;14.10;12.88;;;18.30;99.90;;;;;;5052133;28;20201;-71
2022/08/14 05:53:26;;;;;;;15.30;14.05;;;18.30;99.90;;;;;;5052457;28;20284;-71
2022/08/14 05:55:52;;;;;;;15.82;14.52;;;18.50;99.90;;;;;;5052185;28;20668;-71
2022/08/14 05:58:18;;;;;;;15.57;14.27;;;18.50;99.90;;;;;;5053364;28;20182;-71
2022/08/14 06:00:47;;;;;;;15.38;13.98;;;18.60;99.90;;;;;;5052372;28;20578;-71
2022/08/14 06:03:15;;;;;;;15.70;14.25;;;18.70;99.90;;;;;;5053212;28;20186;-71
2022/08/14 06:05:43;;;;;;;14.85;13.55;;;18.80;99.90;;;;;;5053540;28;20248;-72
2022/08/14 06:08:18;;;;;;;16.25;14.55;;;18.90;99.90;;;;;;5051978;28;20172;-72
2022/08/14 06:10:45;;;;;;;15.18;14.00;;;19.10;99.90;;;;;;5053520;28;20572;-72
2022/08/14 06:13:11;;;;;;;16.27;14.82;;;19.20;99.90;;;;;;5053406;28;20202;-72
2022/08/14 06:15:37;;;;;;;16.73;15.23;;;19.20;99.90;;;;;;5051907;28;20708;-72
2022/08/14 06:18:03;;;;;;;16.23;14.90;;;19.30;99.90;;;;;;5052833;28;20241;-72
2022/08/14 06:20:29;;;;;;;15.80;14.27;;;19.50;99.90;;;;;;5052163;28;20218;-72
2022/08/14 06:22:55;;;;;;;16.92;15.25;;;19.60;99.90;;;;;;5053309;28;20194;-72
2022/08/14 06:25:21;;;;;;;15.45;14.25;;;19.70;99.90;;;;;;5052707;28;20177;-72
2022/08/14 06:27:48;;;;;;;15.93;14.32;;;19.80;99.90;;;;;;5052124;28;20185;-72
2022/08/14 06:30:19;;;;;;;15.52;14.32;;;19.90;99.90;;;;;;5053319;28;20171;-72
2022/08/14 06:32:46;;;;;;;16.20;14.70;;;20.10;99.90;;;;;;5053346;28;20198;-72
2022/08/14 06:38:33;;;;;;;15.68;14.27;;;20.40;99.90;;;;;;5053253;28;20161;-72
2022/08/14 06:40:59;;;;;;;14.15;12.98;;;20.50;99.90;;;;;;5052839;28;20209;-72
2022/08/14 06:43:24;;;;;;;14.82;13.43;;;20.60;99.90;;;;;;5052009;28;20294;-72
2022/08/14 06:45:50;;;;;;;14.52;13.27;;;20.80;99.90;;;;;;5051971;28;20261;-72
2022/08/14 06:48:20;;;;;;;13.65;12.55;;;21.00;99.90;;;;;;5053244;28;20273;-72
2022/08/14 06:50:46;;;;;;;12.82;11.55;;;21.10;99.90;;;;;;5055346;28;20204;-72
2022/08/14 06:53:18;;;;;;;11.88;10.93;;;21.20;99.90;;;;;;5056608;28;20338;-72
2022/08/14 06:55:45;;;;;;;11.95;10.93;;;21.30;99.90;;;;;;5056285;28;20253;-72
2022/08/14 06:58:16;;;;;;;10.38;9.50;;;21.50;99.90;;;;;;5055698;28;20191;-72
2022/08/14 07:05:44;;;;;;;10.23;9.35;;;21.70;99.90;;;;;;5055299;28;20198;-72
2022/08/14 07:06:14;;;;;;;9.55;8.55;;;22.10;99.90;;;;;;5056700;28;20239;-72
2022/08/14 07:08:41;;;;;;;15.77;8.95;;;22.30;99.90;;;;;;5056390;28;20194;-71
2022/08/14 07:11:06;;;;;;;8.20;7.50;;;22.40;99.90;;;;;;5056545;28;20170;-71
2022/08/14 07:13:32;;;;;;;9.23;8.43;;;22.50;99.90;;;;;;5055046;28;20213;-71
2022/08/14 07:15:58;;;;;;;9.23;8.52;;;22.60;99.90;;;;;;5055109;28;20185;-71
2022/08/14 07:18:31;;;;;;;8.52;7.88;;;22.70;99.90;;;;;;5055004;28;20190;-71
2022/08/14 07:20:59;;;;;;;8.95;8.15;;;22.80;99.90;;;;;;5056335;28;20194;-71
2022/08/14 07:23:25;;;;;;;8.57;7.88;;;22.90;99.90;;;;;;5055152;28;20204;-72
2022/08/14 07:25:53;;;;;;;8.80;8.13;;;23.00;99.90;;;;;;5056303;28;20201;-72
2022/08/14 07:28:32;;;;;;;8.95;8.15;;;23.00;99.90;;;;;;5056084;28;20209;-71
2022/08/14 07:34:19;;;;;;;8.48;7.78;;;23.00;99.90;;;;;;5056133;28;20158;-72
2022/08/14 07:36:46;;;;;;;8.52;7.85;;;23.20;99.90;;;;;;5054653;28;20177;-71
2022/08/14 07:39:12;;;;;;;8.48;7.68;;;23.30;99.90;;;;;;5054509;28;20212;-72
2022/08/14 07:41:38;;;;;;;8.23;7.53;;;23.40;99.90;;;;;;5054690;28;20313;-72
2022/08/14 07:44:03;;;;;;;7.78;7.18;;;23.40;99.90;;;;;;5054505;28;20182;-72
2022/08/14 07:46:29;;;;;;;9.88;7.22;;;23.40;99.90;;;;;;5055283;28;20170;-72
2022/08/14 07:48:55;;;;;;;8.18;7.32;;;23.50;99.90;;;;;;5054676;28;20184;-71
2022/08/14 07:51:21;;;;;;;7.30;6.55;;;23.80;99.90;;;;;;5054290;28;20208;-72
2022/08/14 07:53:47;;;;;;;7.55;6.88;;;23.90;99.90;;;;;;5054296;28;20755;-72
2022/08/14 07:56:12;;;;;;;7.25;6.65;;;23.80;99.90;;;;;;5054229;28;20221;-72
2022/08/14 07:58:38;;;;;;;7.80;7.10;;;23.80;99.90;;;;;;5054196;28;20200;-71
2022/08/14 08:01:05;;;;;;;7.45;6.85;;;24.00;99.90;;;;;;5053814;28;20271;-71
2022/08/14 08:03:34;;;;;;;7.30;6.70;;;24.30;99.90;;;;;;5054054;28;20198;-72
2022/08/14 08:06:00;;;;;;;7.75;6.68;;;24.50;99.90;;;;;;5054954;28;20170;-72
2022/08/14 08:08:31;;;;;;;6.85;6.35;;;24.60;99.50;;;;;;5055002;28;20174;-72
2022/08/14 08:10:58;;;;;;;7.55;6.05;;;24.90;99.20;;;;;;5053973;28;20554;-72
2022/08/14 08:13:25;;;;;;;6.60;6.10;;;25.00;98.80;;;;;;5054069;28;20198;-72
2022/08/14 08:15:53;;;;;;;6.57;6.07;;;25.10;97.90;;;;;;5054267;28;20190;-71
2022/08/14 08:18:19;;;;;;;6.30;5.80;;;24.80;97.90;;;;;;5053848;28;20174;-72
2022/08/14 08:20:48;;;;;;;6.57;5.97;;;25.00;97.60;;;;;;5054125;28;20220;-72
2022/08/14 08:23:16;;;;;;;8.27;5.78;;;25.10;96.80;;;;;;5055119;28;20201;-72
2022/08/14 08:25:44;;;;;;;6.53;5.93;;;25.00;97.00;;;;;;5054459;28;20186;-72
2022/08/14 08:28:17;;;;;;;5.53;5.03;;;25.20;96.10;;;;;;5055069;28;20178;-72
2022/08/14 08:30:58;;;;;;;5.90;5.20;;;25.00;95.50;;;;;;5054444;28;20171;-72
2022/08/14 08:33:26;;;;;;;5.25;4.90;;;25.00;95.80;;;;;;5053394;28;20198;-72
2022/08/14 08:35:53;;;;;;;6.07;4.68;;;25.20;95.60;;;;;;5054404;28;20186;-72
2022/08/14 08:38:22;;;;;;;5.20;4.80;;;25.40;95.10;;;;;;5054979;28;20181;-72
2022/08/14 08:40:50;;;;;;;5.70;5.20;;;25.40;94.10;;;;;;5054867;28;20213;-72
2022/08/14 08:43:22;;;;;;;6.15;5.70;;;25.40;94.50;;;;;;5053558;28;20289;-72
2022/08/14 08:46:00;;;;;;;5.20;4.82;;;25.50;94.60;;;;;;5054907;28;20174;-72
2022/08/14 08:48:42;;;;;;;5.47;5.07;;;25.40;93.20;;;;;;5053223;28;20182;-72
2022/08/14 08:51:08;;;;;;;5.47;5.07;;;25.50;93.10;;;;;;5053581;28;20193;-72
2022/08/14 08:53:35;;;;;;;5.28;4.97;;;25.80;93.10;;;;;;5054301;28;20201;-72
2022/08/14 08:56:02;;;;;;;6.03;5.43;;;26.00;92.90;;;;;;5053146;28;20204;-72
2022/08/14 08:58:28;;;;;;;6.15;5.63;;;25.70;92.20;;;;;;5054280;28;20174;-72
2022/08/14 09:00:55;;;;;;;5.38;4.97;;;25.40;92.90;;;;;;5052943;28;20212;-72
2022/08/14 09:03:24;;;;;;;6.00;5.50;;;25.50;93.00;;;;;;5054040;28;20193;-72
2022/08/14 09:05:54;;;;;;;6.78;5.13;;;25.70;92.60;;;;;;5053223;28;20185;-72
2022/08/14 09:08:29;;;;;;;5.57;5.07;;;25.90;92.30;;;;;;5052865;28;20180;-72
2022/08/14 09:10:55;;;;;;;7.07;5.15;;;25.80;91.10;;;;;;5052181;28;20182;-72
2022/08/14 09:13:25;;;;;;;6.15;5.38;;;25.70;92.00;;;;;;5053035;28;20209;-72
2022/08/14 09:15:52;;;;;;;6.00;5.50;;;26.10;91.80;;;;;;5053159;28;20178;-72
2022/08/14 09:18:20;;;;;;;5.43;5.03;;;26.20;90.20;;;;;;5052678;28;20269;-72
2022/08/14 09:20:52;;;;;;;6.15;5.55;;;26.20;90.30;;;;;;5053837;28;20245;-72
2022/08/14 09:23:18;;;;;;;5.35;4.95;;;26.10;90.60;;;;;;5052513;28;20225;-72
2022/08/14 09:25:46;;;;;;;6.30;5.70;;;26.40;90.40;;;;;;5053771;28;20197;-72
2022/08/14 09:28:14;;;;;;;5.97;5.18;;;26.50;89.80;;;;;;5052590;28;20205;-72
2022/08/14 09:30:43;;;;;;;5.72;5.25;;;26.70;88.90;;;;;;5053434;28;20185;-72
2022/08/14 09:33:30;;;;;;;5.70;5.20;;;26.80;88.00;;;;;;5052364;28;20198;-72
2022/08/14 09:36:04;;;;;;;6.00;5.40;;;27.00;89.10;;;;;;5053317;28;20173;-72
2022/08/14 09:38:41;;;;;;;6.10;5.50;;;26.80;88.00;;;;;;5053256;28;20169;-72
2022/08/14 09:41:12;;;;;;;5.82;5.22;;;27.00;86.60;;;;;;5052209;28;20209;-72
2022/08/14 09:44:18;;;;;;;7.00;6.20;;;27.20;87.50;;;;;;5053763;28;20243;-72
2022/08/14 09:46:56;;;;;;;14.00;8.57;;;27.40;85.90;;;;;;5052311;28;20249;-72
2022/08/14 09:49:36;;;;;;;9.70;7.72;;;27.60;84.10;;;;;;5052409;28;20268;-72
2022/08/14 09:52:05;;;;;;;6.78;6.18;;;27.70;82.20;;;;;;5052287;28;20201;-72
2022/08/14 09:54:42;;;;;;;6.38;5.80;;;27.70;79.60;;;;;;5052206;28;20178;-72
2022/08/14 09:57:22;;;;;;;8.88;6.38;;;27.70;79.80;;;;;;5053476;28;20632;-71
2022/08/14 09:59:48;;;;;;;5.78;5.28;;;27.60;80.40;;;;;;5053623;28;20162;-72
2022/08/14 10:02:22;;;;;;;7.30;5.75;;;27.60;77.60;;;;;;5053412;28;20194;-72
2022/08/14 10:05:10;;;;;;;6.95;5.20;;;27.60;79.10;;;;;;5052027;28;20181;-72
2022/08/14 10:07:50;;;;;;;5.28;4.88;;;27.60;76.90;;;;;;5053659;28;20186;-72
2022/08/14 10:10:38;;;;;;;5.55;5.05;;;27.70;77.30;;;;;;5053159;28;20691;-72
2022/08/14 10:13:22;;;;;;;5.75;5.30;;;27.60;77.60;;;;;;5052271;28;20674;-72
2022/08/14 10:15:51;;;;;;;5.57;5.07;;;27.70;78.00;;;;;;5051977;28;20555;-72
2022/08/14 10:18:19;;;;;;;8.50;4.88;;;27.80;76.50;;;;;;5052210;28;20653;-72
2022/08/14 10:20:59;;;;;;;5.13;4.72;;;27.80;74.60;;;;;;5053264;28;20209;-72
2022/08/14 10:23:37;;;;;;;5.40;4.70;;;27.80;74.50;;;;;;5054556;28;20287;-73
2022/08/14 10:26:06;;;;;;;7.53;4.88;;;27.80;75.00;;;;;;5056808;28;20181;-72
2022/08/14 10:28:49;;;;;;;5.13;4.63;;;28.10;74.60;;;;;;5056728;28;20185;-72
2022/08/14 10:31:18;;;;;;;5.15;4.60;;;28.20;73.90;;;;;;5055732;28;20276;-72
2022/08/14 10:33:56;;;;;;;6.20;5.10;;;28.10;71.30;;;;;;5056871;28;20657;-72
2022/08/14 10:36:31;;;;;;;5.38;4.88;;;28.10;73.20;;;;;;5057598;28;20176;-72
2022/08/14 10:38:59;;;;;;;5.10;4.70;;;28.20;71.00;;;;;;5057208;28;20158;-72
2022/08/14 10:41:48;;;;;;;5.30;4.80;;;28.00;71.00;;;;;;5055734;28;20268;-72
2022/08/14 10:44:16;;;;;;;5.40;4.90;;;28.00;71.90;;;;;;5055720;28;20172;-72
2022/08/14 10:46:57;;;;;;;5.10;4.68;;;28.10;72.20;;;;;;5055584;28;20228;-72
2022/08/14 10:49:25;;;;;;;5.25;4.85;;;28.30;72.00;;;;;;5057470;28;20177;-73
2022/08/14 10:52:24;;;;;;;5.32;4.78;;;28.30;71.20;;;;;;5056595;28;20222;-72
2022/08/14 10:54:51;;;;;;;5.53;5.03;;;28.20;70.90;;;;;;5055618;28;20498;-72
2022/08/14 10:57:25;;;;;;;5.35;4.88;;;28.50;70.50;;;;;;5055663;28;20710;-72
2022/08/14 11:00:14;;;;;;;5.15;4.75;;;28.80;70.40;;;;;;5055834;28;20193;-73
2022/08/14 11:02:41;;;;;;;5.85;4.70;;;29.00;68.00;;;;;;5057173;28;20190;-77
2022/08/14 11:05:10;;;;;;;6.47;5.22;;;29.10;68.20;;;;;;5057099;28;20257;-73
2022/08/14 11:07:38;;;;;;;5.20;4.78;;;28.90;66.80;;;;;;5056033;28;20245;-72
2022/08/14 11:11:00;;;;;;;5.88;5.03;;;28.90;66.70;;;;;;5055090;28;20182;-72
2022/08/14 11:13:28;;;;;;;5.80;5.30;;;29.10;69.20;;;;;;5054986;28;20699;-72
2022/08/14 11:15:59;;;;;;;5.63;4.85;;;29.50;67.10;;;;;;5054793;28;20208;-72
2022/08/14 11:18:26;;;;;;;5.57;5.03;;;29.60;66.40;;;;;;5056065;28;20154;-72
2022/08/14 11:20:54;;;;;;;6.32;5.18;;;29.50;65.10;;;;;;5055700;28;20329;-72
2022/08/14 11:23:23;;;;;;;5.10;4.60;;;29.40;64.90;;;;;;5054875;28;20197;-72
2022/08/14 11:25:50;;;;;;;5.80;5.03;;;29.70;65.50;;;;;;5056110;28;20670;-72
2022/08/14 11:28:21;;;;;;;5.30;4.80;;;30.10;63.70;;;;;;5054846;28;20189;-72
2022/08/14 11:30:49;;;;;;;6.00;5.32;;;30.40;62.50;;;;;;5055619;28;20260;-72
2022/08/14 11:33:15;;;;;;;5.30;4.90;;;30.50;61.40;;;;;;5055730;28;20257;-72
2022/08/14 11:35:42;;;;;;;5.50;5.00;;;30.30;60.00;;;;;;5053846;28;20193;-72
2022/08/14 11:38:11;;;;;;;5.50;5.10;;;30.40;62.20;;;;;;5061523;28;20257;-72
2022/08/14 11:40:38;;;;;;;5.20;4.75;;;30.20;61.50;;;;;;5069726;28;20193;-72
2022/08/14 11:43:08;;;;;;;6.40;5.43;;;30.40;61.40;;;;;;5068168;28;20216;-72
2022/08/14 11:45:46;;;;;;;5.30;4.80;;;30.40;61.40;;;;;;5067799;28;20652;-73
2022/08/14 11:48:18;;;;;;;6.72;5.65;;;30.20;62.00;;;;;;5069409;28;20249;-72
2022/08/14 11:50:45;;;;;;;6.00;5.40;;;30.10;60.10;;;;;;5066811;28;20201;-72
2022/08/14 11:53:39;;;;;;;6.10;5.53;;;29.90;61.80;;;;;;5067620;28;20201;-75
2022/08/14 11:56:06;;;;;;;6.07;5.55;;;29.40;61.80;;;;;;5066740;28;20216;-73
2022/08/14 11:58:36;;;;;;;5.80;5.10;;;29.30;63.70;;;;;;5066722;28;20181;-73
2022/08/14 12:01:06;;;;;;;5.95;5.35;;;29.50;62.30;;;;;;5065194;28;20211;-73
2022/08/14 12:03:48;;;;;;;5.80;5.30;;;29.60;62.20;;;;;;5067833;28;20217;-73
2022/08/14 12:06:19;;;;;;;5.95;5.20;;;29.30;61.60;;;;;;5067456;28;20177;-72
2022/08/14 12:08:45;;;;;;;6.13;5.63;;;29.00;62.30;;;;;;5067354;28;20212;-72
2022/08/14 12:11:14;;;;;;;6.10;5.60;;;28.90;63.50;;;;;;5066929;28;20205;-72
2022/08/14 12:13:43;;;;;;;6.00;5.50;;;29.10;63.60;;;;;;5067251;28;20202;-72
2022/08/14 12:16:19;;;;;;;5.22;4.90;;;29.00;64.00;;;;;;5067053;28;20265;-72
2022/08/14 12:18:48;;;;;;;7.45;5.45;;;29.10;64.00;;;;;;5057341;28;20670;-72
2022/08/14 12:21:18;;;;;;;5.60;5.20;;;29.00;62.80;;;;;;5054069;28;20205;-73
2022/08/14 12:23:46;;;;;;;6.45;5.05;;;29.10;62.60;;;;;;5055306;28;20169;-73
2022/08/14 12:26:16;;;;;;;5.50;5.10;;;29.10;62.40;;;;;;5054058;28;20185;-73
2022/08/14 12:28:43;;;;;;;5.65;5.03;;;29.20;61.90;;;;;;5054538;28;20252;-73
2022/08/14 12:31:15;;;;;;;5.47;4.97;;;29.20;61.20;;;;;;5053576;28;20174;-73
2022/08/14 12:33:42;;;;;;;7.25;5.13;;;29.20;62.40;;;;;;5055334;28;20172;-73
2022/08/14 12:36:19;;;;;;;5.28;4.88;;;29.20;61.10;;;;;;5055024;28;20588;-73
2022/08/14 12:38:45;;;;;;;4.78;4.47;;;29.20;59.70;;;;;;5054997;28;20161;-73
2022/08/14 12:41:14;;;;;;;6.90;5.15;;;29.10;59.60;;;;;;5053649;28;20205;-73
2022/08/14 12:43:52;;;;;;;5.25;4.78;;;29.20;59.40;;;;;;5053401;28;20174;-73
2022/08/14 12:46:40;;;;;;;5.03;4.63;;;29.20;59.30;;;;;;5053281;28;20169;-73
2022/08/14 12:49:08;;;;;;;5.28;4.80;;;29.30;58.60;;;;;;5055304;28;20184;-73
2022/08/14 12:51:34;;;;;;;5.10;4.60;;;29.40;58.10;;;;;;5053063;28;20200;-73
2022/08/14 12:54:13;;;;;;;4.70;4.40;;;29.60;58.90;;;;;;5053130;28;20277;-73
2022/08/14 12:56:39;;;;;;;5.40;4.90;;;30.00;58.20;;;;;;5053404;28;20246;-73
2022/08/14 12:59:04;;;;;;;5.88;5.28;;;30.20;57.50;;;;;;5053634;28;20181;-73
2022/08/14 13:01:33;;;;;;;5.70;5.20;;;30.10;56.70;;;;;;5052922;28;20292;-73
2022/08/14 13:04:07;;;;;;;5.22;4.88;;;29.80;56.80;;;;;;5053283;28;20177;-73
2022/08/14 13:06:35;;;;;;;4.93;4.63;;;29.70;57.20;;;;;;5052993;28;20184;-73
2022/08/14 13:09:01;;;;;;;4.97;4.65;;;29.60;56.60;;;;;;5053730;28;20201;-73
2022/08/14 13:11:35;;;;;;;7.78;5.00;;;29.50;57.20;;;;;;5053967;28;20170;-73
2022/08/14 13:14:02;;;;;;;5.68;5.18;;;29.60;57.10;;;;;;5053589;28;20509;-73
2022/08/14 13:16:29;;;;;;;6.38;4.78;;;29.70;57.30;;;;;;5054282;28;20166;-73
2022/08/14 13:19:00;;;;;;;5.35;4.95;;;29.90;57.80;;;;;;5052745;28;20253;-73